• Join FlightAware (Why Join?)
  • Login
  • US Flag 
11:10PM EDT


 

Airport Tracker/Info


-or-


 

Live Flight TrackerFlight Track Log ✈ DAL6055 ✈ 10-Apr-2013 ✈ KDTW - KSDF

Flight Track Log - Related Links

Times and Time Zones

All times are in EDT time to prevent confusion due to time zone crossing. See the DAL6055 flight status page for this flight to view local times or setup timezone preferences in your user account.

Time Position Orientation Groundspeed Altitude Reporting Facility
EDT Latitude Longitude Course Direction KTS MPH feet Rate Location/Type
09:29AM 42.2286 -83.3361 25° Northeast 146 168 1,100  Level FAA TRACON SMA TRACON (SMA)
09:29AM 42.2417 -83.3278 25° Northeast 150 173 2,000 1,920 Climbing FAA TRACON SMA TRACON (SMA)
09:30AM 42.2753 -83.3322 354° North 200 230 3,000 1,560 Climbing FAA TRACON SMA TRACON (SMA)
09:30AM 42.2961 -83.3361 352° North 220 253 3,600 1,440 Climbing FAA TRACON SMA TRACON (SMA)
09:31AM 42.3142 -83.3381 355° North 239 275 4,000 1,620 Climbing FAA TRACON SMA TRACON (SMA)
09:31AM 42.3406 -83.3383 360° North 250 288 4,700 2,100 Climbing FAA TRACON SMA TRACON (SMA)
09:31AM 42.3617 -83.3425 352° North 239 275 5,400 2,100 Climbing FAA TRACON SMA TRACON (SMA)
09:32AM 42.3750 -83.3622 312° West 233 268 6,100 2,220 Climbing FAA TRACON SMA TRACON (SMA)
09:32AM 42.3758 -83.3953 272° West 236 272 6,900 2,340 Climbing FAA TRACON SMA TRACON (SMA)
09:32AM 42.3744 -83.4222 266° West 232 267 7,700 2,520 Climbing FAA TRACON SMA TRACON (SMA)
09:33AM 42.3725 -83.4500 265° West 227 261 8,600 2,520 Climbing FAA TRACON SMA TRACON (SMA)
09:33AM 42.3697 -83.4808 263° West 228 262 9,400 2,280 Climbing FAA TRACON SMA TRACON (SMA)
09:33AM 42.3656 -83.5069 258° West 229 264 10,100 1,920 Climbing FAA TRACON SMA TRACON (SMA)
09:34AM 42.3617 -83.5347 259° West 231 266 10,700 1,440 Climbing FAA TRACON SMA TRACON (SMA)
09:34AM 42.3581 -83.5611 260° West 243 280 11,100 1,320 Climbing FAA TRACON SMA TRACON (SMA)
09:34AM 42.3528 -83.5972 259° West 257 296 11,600 1,200 Climbing FAA TRACON SMA TRACON (SMA)
09:35AM 42.3483 -83.6275 259° West 266 306 11,900 1,020 Climbing FAA TRACON SMA TRACON (SMA)
09:35AM 42.3439 -83.6586 259° West 272 313 12,300 1,920 Climbing FAA TRACON SMA TRACON (SMA)
09:35AM 42.3381 -83.6975 259° West 274 315 13,200 2,460 Climbing FAA TRACON SMA TRACON (SMA)
09:36AM 42.3336 -83.7281 259° West 273 314 14,000 2,520 Climbing FAA TRACON SMA TRACON (SMA)
09:36AM 42.3283 -83.7653 259° West 266 306 14,900 2,400 Climbing FAA TRACON SMA TRACON (SMA)
09:36AM 42.3239 -83.7942 258° West 260 299 15,600 1,860 Climbing FAA TRACON SMA TRACON (SMA)
09:37AM 42.3119 -83.8497 254° West 269 310 16,800 1,680 Climbing FAA TRACON SMA TRACON (SMA)
09:37AM 42.2933 -83.8764 227° Southwest 263 303 17,300 1,500 Climbing FAA TRACON SMA TRACON (SMA)
09:38AM 42.2750 -83.8947 217° Southwest 264 304 17,800 1,320 Climbing FAA TRACON SMA TRACON (SMA)
09:38AM 42.2567 -83.9142 218° Southwest 272 313 18,200 1,380 Climbing FAA TRACON SMA TRACON (SMA)
09:38AM 42.2325 -83.9383 217° Southwest 279 321 18,700 1,320 Climbing FAA TRACON SMA TRACON (SMA)
09:39AM 42.2133 -83.9586 218° Southwest 284 327 19,100 1,140 Climbing FAA TRACON SMA TRACON (SMA)
09:39AM 42.1933 -83.9789 217° Southwest 289 333 19,500 1,320 Climbing FAA TRACON SMA TRACON (SMA)
09:39AM 42.1678 -84.0047 217° Southwest 295 339 20,000 1,320 Climbing FAA TRACON SMA TRACON (SMA)
09:40AM 42.1475 -84.0261 218° Southwest 300 345 20,400 1,320 Climbing FAA TRACON SMA TRACON (SMA)
09:40AM 42.1211 -84.0528 217° Southwest 305 351 20,900 1,320 Climbing FAA TRACON SMA TRACON (SMA)
09:40AM 42.0997 -84.0744 217° Southwest 307 353 21,300 1,200 Climbing FAA TRACON SMA TRACON (SMA)
09:41AM 42.0783 -84.0967 218° Southwest 313 360 21,700 1,020 Climbing FAA TRACON SMA TRACON (SMA)
09:41AM 42.0511 -84.1247 217° Southwest 316 364 22,000 420 Climbing FAA TRACON SMA TRACON (SMA)
09:41AM 42.0283 -84.1475 217° Southwest 327 376 22,000  Level FAA TRACON SMA TRACON (SMA)
09:42AM 42.0039 -84.1714 216° Southwest 320 368 22,000  Level Cleveland Center
09:43AM 41.9222 -84.2506 216° Southwest 345 397 22,000  Level Cleveland Center
09:44AM 41.8333 -84.3486 219° Southwest 364 419 22,000  Level Cleveland Center
09:45AM 41.7372 -84.4181 208° Southwest 384 442 22,000  Level Cleveland Center
09:46AM 41.6353 -84.4731 202° Southwest 389 448 22,000  Level Cleveland Center
09:47AM 41.5336 -84.5253 201° Southwest 394 453 22,000  Level Cleveland Center
09:48AM 41.4206 -84.5322 183° South 399 459 22,000 -60 Level Cleveland Center
09:50AM 41.1797 -84.5475 183° South 402 463 21,900 -60 Descending Indianapolis Center
09:51AM 41.0675 -84.5553 183° South 401 461 21,900  Level Indianapolis Center
09:52AM 40.9522 -84.5642 183° South 407 468 21,900  Level Indianapolis Center
09:53AM 40.8175 -84.5739 183° South 412 474 21,900  Level Indianapolis Center
09:54AM 40.7033 -84.5825 183° South 409 471 22,000  Climbing Indianapolis Center
09:55AM 40.5897 -84.5911 183° South 407 468 21,900 -60 Descending Indianapolis Center
09:56AM 40.4761 -84.5994 183° South 406 467 21,900  Level Indianapolis Center
09:57AM 40.3619 -84.6075 183° South 407 468 22,000  Climbing Indianapolis Center
09:58AM 40.2472 -84.6164 183° South 409 471 21,900 -60 Descending Indianapolis Center
09:59AM 40.1331 -84.6244 183° South 409 471 21,900  Level Indianapolis Center
10:00AM 40.0003 -84.6331 183° South 408 470 21,900  Level Indianapolis Center
10:01AM 39.8844 -84.6431 184° South 412 474 22,000  Climbing Indianapolis Center
10:02AM 39.7722 -84.6661 189° South 413 475 21,900 -60 Descending Indianapolis Center
10:03AM 39.6628 -84.7092 197° South 409 471 21,900  Level Indianapolis Center
10:04AM 39.5475 -84.7200 184° South 413 475 22,000  Climbing Indianapolis Center
10:05AM 39.4317 -84.7161 179° South 417 480 22,000  Level Indianapolis Center
10:06AM 39.3667 -84.7167 180° South 415 478 22,000  Level Cincinnati TRACON
10:07AM 39.2333 -84.7167 180° South 417 480 22,000 -360 Level Cincinnati TRACON
10:08AM 39.1167 -84.7000 174° South 416 479 21,300 -1,500 Descending Cincinnati TRACON
10:09AM 39.0167 -84.7167 187° South 397 457 19,000 -2,400 Descending Cincinnati TRACON
10:10AM 38.9333 -84.7833 212° Southwest 360 414 16,500 -2,340 Descending Cincinnati TRACON
10:12AM 38.7997 -84.9139 217° Southwest 361 415 12,800 -1,680 Descending Indianapolis Center
10:13AM 38.7217 -84.9878 216° Southwest 350 403 12,000 -420 Descending Indianapolis Center
10:14AM 38.6342 -85.0719 217° Southwest 344 396 12,000 -60 Level Indianapolis Center
10:15AM 38.5594 -85.1439 217° Southwest 339 390 11,900 -780 Descending Indianapolis Center
10:16AM 38.4975 -85.2036 217° Southwest 302 348 10,500 -1,740 Descending Indianapolis Center
10:17AM 38.4311 -85.2661 216° Southwest 254 292 8,200 -1,980 Descending FAA TRACON SMA TRACON (SMA)
10:17AM 38.4139 -85.2828 217° Southwest 253 291 7,600 -1,740 Descending FAA TRACON SMA TRACON (SMA)
10:18AM 38.3925 -85.3033 217° Southwest 251 289 7,100 -900 Descending FAA TRACON SMA TRACON (SMA)
10:18AM 38.3753 -85.3194 216° Southwest 250 288 7,000 -300 Descending FAA TRACON SMA TRACON (SMA)
10:18AM 38.3581 -85.3353 216° Southwest 250 288 6,900 -180 Descending FAA TRACON SMA TRACON (SMA)
10:19AM 38.3369 -85.3556 217° Southwest 248 285 6,900  Level FAA TRACON SMA TRACON (SMA)
10:19AM 38.3203 -85.3717 217° Southwest 244 281 6,900  Level FAA TRACON SMA TRACON (SMA)
10:19AM 38.3036 -85.3872 216° Southwest 243 280 6,900  Level FAA TRACON SMA TRACON (SMA)
10:20AM 38.2825 -85.4069 216° Southwest 242 278 6,900 -360 Level FAA TRACON SMA TRACON (SMA)
10:20AM 38.2703 -85.4269 232° Southwest 241 277 6,700 -900 Descending FAA TRACON SMA TRACON (SMA)
10:20AM 38.2583 -85.4481 234° Southwest 238 274 6,300 -1,080 Descending FAA TRACON SMA TRACON (SMA)
10:21AM 38.2439 -85.4747 235° Southwest 236 272 6,000 -600 Descending FAA TRACON SMA TRACON (SMA)
10:21AM 38.2322 -85.4953 234° Southwest 234 269 5,900 -180 Descending FAA TRACON SMA TRACON (SMA)
10:21AM 38.2211 -85.5164 236° Southwest 232 267 5,900  Level FAA TRACON SMA TRACON (SMA)
10:22AM 38.2100 -85.5364 235° Southwest 229 264 5,900 120 Level FAA TRACON SMA TRACON (SMA)
10:22AM 38.1958 -85.5619 235° Southwest 228 262 6,000 120 Climbing FAA TRACON SMA TRACON (SMA)
10:22AM 38.1906 -85.5853 254° West 231 266 6,000  Level FAA TRACON SMA TRACON (SMA)
10:23AM 38.2042 -85.6106 304° West 244 281 6,000 -180 Level FAA TRACON SMA TRACON (SMA)
10:23AM 38.2250 -85.6208 339° North 258 297 5,900 -600 Descending FAA TRACON SMA TRACON (SMA)
10:23AM 38.2464 -85.6294 342° North 263 303 5,600 -1,500 Descending FAA TRACON SMA TRACON (SMA)
10:24AM 38.2725 -85.6403 342° North 258 297 4,900 -1,860 Descending FAA TRACON SMA TRACON (SMA)
10:24AM 38.2933 -85.6489 342° North 255 293 4,400 -1,200 Descending FAA TRACON SMA TRACON (SMA)
10:24AM 38.3136 -85.6567 343° North 250 288 4,100 -780 Descending FAA TRACON SMA TRACON (SMA)
10:25AM 38.3381 -85.6653 345° North 237 273 3,900 -480 Descending FAA TRACON SMA TRACON (SMA)
10:25AM 38.3556 -85.6706 347° North 216 249 3,800 -480 Descending FAA TRACON SMA TRACON (SMA)
10:25AM 38.3722 -85.6758 346° North 203 234 3,600 -780 Descending FAA TRACON SMA TRACON (SMA)
10:26AM 38.3897 -85.6856 336° Northwest 189 217 3,300 -780 Descending FAA TRACON SMA TRACON (SMA)
10:26AM 38.3911 -85.7008 277° West 176 203 3,100 -480 Descending FAA TRACON SMA TRACON (SMA)
10:26AM 38.3886 -85.7164 258° West 148 170 3,000 -180 Descending FAA TRACON SMA TRACON (SMA)
10:27AM 38.3811 -85.7325 239° Southwest 149 171 3,000  Level FAA TRACON SMA TRACON (SMA)
10:27AM 38.3686 -85.7383 200° South 155 178 3,000  Level FAA TRACON SMA TRACON (SMA)
10:27AM 38.3553 -85.7411 189° South 159 183 3,000  Level FAA TRACON SMA TRACON (SMA)
10:28AM 38.3383 -85.7419 182° South 159 183 3,000 -180 Level FAA TRACON SMA TRACON (SMA)
10:28AM 38.3250 -85.7425 182° South 157 181 2,900 -480 Descending FAA TRACON SMA TRACON (SMA)
10:28AM 38.3081 -85.7442 184° South 155 178 2,700 -600 Descending FAA TRACON SMA TRACON (SMA)
10:29AM 38.2947 -85.7458 186° South 155 178 2,500 -600 Descending FAA TRACON SMA TRACON (SMA)
10:29AM 38.2817 -85.7469 184° South 154 177 2,300 -780 Descending FAA TRACON SMA TRACON (SMA)
10:29AM 38.2686 -85.7483 185° South 154 177 2,000 -780 Descending FAA TRACON SMA TRACON (SMA)
10:30AM 38.2542 -85.7489 182° South 139 160 1,800 -600 Descending FAA TRACON SMA TRACON (SMA)
10:30AM 38.2433 -85.7483 178° South 127 146 1,600 -600 Descending FAA TRACON SMA TRACON (SMA)
10:30AM 38.2328 -85.7464 172° South 125 144 1,400 -780 Descending FAA TRACON SMA TRACON (SMA)
10:31AM 38.2189 -85.7419 166° South 130 150 1,100 -780 Descending FAA TRACON SMA TRACON (SMA)
10:31AM 38.2081 -85.7383 165° South 132 152 900 -660 Descending FAA TRACON SMA TRACON (SMA)
10:31AM 38.1969 -85.7347 166° South 133 153 700 -600 Descending FAA TRACON SMA TRACON (SMA)